Time;durP1;ratioP1;P1;durP2;ratioP2;P2;SDS_P1;SDS_P2;PMS_P1;PMS_P2;Temp;Humidity;BMP_temperature;BMP_pressure;BME280_temperature;BME280_humidity;BME280_pressure;Samples;Min_cycle;Max_cycle;Signal;HPM_P1;HPM_P2
2023/12/28 00:00:27;;;;;;;7.80;5.00;;;;;;;17.18;39.04;102064.29;103614;1282;60655;-76
2023/12/28 00:02:52;;;;;;;7.90;5.30;;;;;;;17.18;39.13;102065.55;103844;1282;60457;-76
2023/12/28 00:05:18;;;;;;;8.00;5.00;;;;;;;17.18;39.09;102069.11;103641;1282;60598;-77
2023/12/28 00:07:44;;;;;;;9.10;4.80;;;;;;;17.17;39.12;102068.77;103655;1281;60598;-76
2023/12/28 00:10:10;;;;;;;8.20;5.30;;;;;;;17.18;39.11;102069.28;103615;1282;72427;-76
2023/12/28 00:12:35;;;;;;;8.50;5.00;;;;;;;17.17;39.12;102071.25;103647;1282;60474;-76
2023/12/28 00:15:01;;;;;;;7.10;4.70;;;;;;;17.17;39.21;102070.92;103632;1282;60518;-76
2023/12/28 00:17:27;;;;;;;7.50;4.80;;;;;;;17.16;39.13;102077.34;104117;1281;60434;-76
2023/12/28 00:19:53;;;;;;;7.30;4.50;;;;;;;17.17;39.20;102080.89;103504;1282;60575;-77
2023/12/28 00:22:18;;;;;;;7.80;4.90;;;;;;;17.17;39.17;102080.17;103695;1281;60457;-76
2023/12/28 00:24:44;;;;;;;6.90;4.60;;;;;;;17.16;39.20;102083.39;103587;1282;73469;-76
2023/12/28 00:27:09;;;;;;;8.00;4.70;;;;;;;17.16;39.31;102082.86;103623;1282;60491;-76
2023/12/28 00:29:38;;;;;;;6.50;4.90;;;;;;;17.16;39.21;102078.77;103813;1282;61110;-76
2023/12/28 00:32:05;;;;;;;7.70;4.80;;;;;;;17.16;39.27;102081.27;103724;1281;72537;-77
2023/12/28 00:34:31;;;;;;;8.70;4.90;;;;;;;17.15;39.21;102080.92;103579;1282;73515;-77
2023/12/28 00:36:57;;;;;;;9.50;4.90;;;;;;;17.15;39.23;102084.48;103644;1282;59238;-77
2023/12/28 00:39:22;;;;;;;8.00;4.70;;;;;;;17.15;39.20;102082.89;103724;1281;60596;-77
2023/12/28 00:41:48;;;;;;;6.60;4.40;;;;;;;17.16;39.31;102087.15;103701;1282;60467;-77
2023/12/28 00:44:13;;;;;;;7.60;4.60;;;;;;;17.15;39.14;102085.20;103840;1282;60579;-76
2023/12/28 00:46:39;;;;;;;6.60;4.40;;;;;;;17.15;39.25;102084.68;103718;1282;60669;-77
2023/12/28 00:49:05;;;;;;;8.00;4.80;;;;;;;17.15;39.24;102084.88;103526;1282;60745;-76
2023/12/28 00:51:30;;;;;;;7.90;4.80;;;;;;;17.15;39.17;102084.86;103508;1281;60911;-77
2023/12/28 00:53:56;;;;;;;6.90;4.50;;;;;;;17.14;39.19;102081.32;103546;1282;60600;-76
2023/12/28 00:56:22;;;;;;;7.50;4.90;;;;;;;17.14;39.20;102083.99;103544;1282;61248;-76
2023/12/28 00:58:47;;;;;;;9.10;4.80;;;;;;;17.14;39.22;102087.73;103437;1282;61266;-76
2023/12/28 01:01:13;;;;;;;7.70;4.80;;;;;;;17.14;39.35;102092.73;103777;1282;61382;-77
2023/12/28 01:03:39;;;;;;;7.60;4.80;;;;;;;17.14;39.17;102090.04;103557;1282;61401;-76
2023/12/28 01:06:07;;;;;;;7.80;4.30;;;;;;;17.14;39.25;102091.48;103662;1282;61366;-77
2023/12/28 01:08:34;;;;;;;6.70;4.50;;;;;;;17.13;39.28;102087.74;103564;1281;74352;-76
2023/12/28 01:11:00;;;;;;;7.40;4.90;;;;;;;17.13;39.39;102089.01;103825;1281;61382;-77
2023/12/28 01:13:27;;;;;;;7.50;4.70;;;;;;;17.13;39.35;102094.89;103547;1281;61321;-76
2023/12/28 01:15:52;;;;;;;7.00;4.60;;;;;;;17.13;39.36;102096.66;103422;1281;59596;-76
2023/12/28 01:18:18;;;;;;;7.90;4.50;;;;;;;17.13;39.33;102101.29;103783;1281;61232;-77
2023/12/28 01:20:44;;;;;;;8.50;5.10;;;;;;;17.13;39.37;102103.08;103729;1282;61383;-76
2023/12/28 01:23:10;;;;;;;7.70;5.10;;;;;;;17.13;39.50;102102.72;103814;1281;59385;-76
2023/12/28 01:25:35;;;;;;;9.20;5.10;;;;;;;17.13;39.46;102105.04;103726;1281;59416;-76
2023/12/28 01:28:01;;;;;;;7.20;4.70;;;;;;;17.12;39.41;102105.41;103656;1282;72325;-77
2023/12/28 01:30:27;;;;;;;7.70;5.20;;;;;;;17.12;39.42;102099.89;103473;1284;61250;-77
2023/12/28 01:32:53;;;;;;;8.10;4.70;;;;;;;17.12;39.52;102090.12;103648;1281;59948;-76
2023/12/28 01:35:19;;;;;;;7.30;5.00;;;;;;;17.11;39.51;102080.54;103535;1282;61335;-76
2023/12/28 01:37:45;;;;;;;6.70;4.50;;;;;;;17.12;39.43;102081.23;103506;1282;61399;-76
2023/12/28 01:40:11;;;;;;;7.10;4.60;;;;;;;17.11;39.51;102080.54;103941;1281;61383;-76
2023/12/28 01:42:37;;;;;;;7.80;4.80;;;;;;;17.11;39.54;102086.24;103634;1282;61502;-76
2023/12/28 01:45:03;;;;;;;7.30;4.70;;;;;;;17.11;39.57;102082.68;103467;1281;61384;-76
2023/12/28 01:47:29;;;;;;;7.20;4.60;;;;;;;17.11;39.57;102081.63;103603;1281;59928;-76
2023/12/28 01:49:55;;;;;;;6.90;4.70;;;;;;;17.10;39.52;102079.67;103550;1283;61320;-76
2023/12/28 01:52:20;;;;;;;7.70;4.60;;;;;;;17.10;39.57;102076.13;103659;1281;61356;-76
2023/12/28 01:54:46;;;;;;;8.00;5.30;;;;;;;17.10;39.68;102076.83;103770;1281;61720;-76
2023/12/28 01:57:12;;;;;;;7.10;4.70;;;;;;;17.10;39.59;102074.36;103594;1281;59378;-76
2023/12/28 01:59:37;;;;;;;8.10;4.80;;;;;;;17.10;39.70;102078.09;103751;1281;61388;-76
2023/12/28 02:02:03;;;;;;;7.70;5.00;;;;;;;17.09;39.62;102081.83;103635;1281;72657;-76
2023/12/28 02:04:29;;;;;;;6.50;4.80;;;;;;;17.09;39.68;102083.80;103651;1282;61379;-76
2023/12/28 02:06:59;;;;;;;8.20;4.80;;;;;;;17.10;39.58;102085.39;103629;1281;59382;-76
2023/12/28 02:09:25;;;;;;;7.30;4.70;;;;;;;17.09;39.66;102080.98;103593;1281;61299;-76
2023/12/28 02:11:52;;;;;;;8.20;5.20;;;;;;;17.09;39.65;102077.95;103597;1281;72599;-76
2023/12/28 02:14:18;;;;;;;7.20;4.60;;;;;;;17.09;39.68;102083.27;103650;1281;61199;-76
2023/12/28 02:16:56;;;;;;;7.90;5.00;;;;;;;17.09;39.70;102083.80;103472;1282;61372;-76
2023/12/28 02:19:30;;;;;;;8.00;5.20;;;;;;;17.08;39.71;102081.88;103790;1281;60276;-76
2023/12/28 02:21:56;;;;;;;7.10;4.50;;;;;;;17.08;39.65;102082.59;103553;1282;72339;-76
2023/12/28 02:24:21;;;;;;;7.00;4.40;;;;;;;17.08;39.61;102090.60;103614;1282;61384;-76
2023/12/28 02:26:47;;;;;;;7.90;5.20;;;;;;;17.07;39.65;102091.69;103529;1281;59463;-77
2023/12/28 02:29:13;;;;;;;7.90;4.90;;;;;;;17.08;39.64;102090.27;103469;1281;61328;-76
2023/12/28 02:31:42;;;;;;;8.40;5.00;;;;;;;17.08;39.85;102093.10;103685;1281;61497;-76
2023/12/28 02:34:16;;;;;;;8.00;5.10;;;;;;;17.08;39.70;102091.16;103386;1282;61510;-76
2023/12/28 02:36:44;;;;;;;6.50;5.00;;;;;;;17.07;39.73;102091.52;103678;1281;61260;-77
2023/12/28 02:39:11;;;;;;;7.40;5.00;;;;;;;17.07;39.72;102096.67;103684;1281;61250;-76
2023/12/28 02:41:37;;;;;;;6.90;4.70;;;;;;;17.07;39.69;102092.41;103574;1281;72473;-76
2023/12/28 02:44:02;;;;;;;7.30;4.90;;;;;;;17.06;39.72;102093.85;103523;1281;61372;-76
2023/12/28 02:46:28;;;;;;;6.50;4.70;;;;;;;17.06;39.70;102093.14;103768;1282;61334;-76
2023/12/28 02:48:57;;;;;;;8.10;4.60;;;;;;;17.06;39.69;102092.27;103758;1281;61140;-76
2023/12/28 02:51:22;;;;;;;8.30;4.80;;;;;;;17.06;39.67;102093.84;103572;1282;61331;-76
2023/12/28 02:53:49;;;;;;;7.90;5.20;;;;;;;17.06;39.63;102091.39;103569;1281;61243;-77
2023/12/28 02:56:15;;;;;;;6.70;4.30;;;;;;;17.06;39.57;102092.09;103550;1281;61383;-76
2023/12/28 02:58:41;;;;;;;7.30;4.80;;;;;;;17.06;39.56;102086.23;103800;1281;59355;-77
2023/12/28 03:01:07;;;;;;;6.90;4.80;;;;;;;17.05;39.63;102081.44;103553;1281;61269;-77
2023/12/28 03:03:33;;;;;;;7.00;4.70;;;;;;;17.05;39.70;102085.72;103671;1281;61376;-77
2023/12/28 03:05:58;;;;;;;7.50;5.00;;;;;;;17.06;39.70;102089.97;103393;1281;61440;-76
2023/12/28 03:08:24;;;;;;;7.70;4.90;;;;;;;17.05;39.65;102089.09;103471;1284;61347;-77
2023/12/28 03:10:50;;;;;;;8.00;5.00;;;;;;;17.05;39.66;102088.73;103441;1281;61340;-76
2023/12/28 03:13:15;;;;;;;7.30;4.70;;;;;;;17.05;39.62;102092.99;103551;1281;61446;-76
2023/12/28 03:15:41;;;;;;;6.70;4.70;;;;;;;17.05;39.64;102092.48;103774;1281;61264;-77
2023/12/28 03:18:07;;;;;;;9.00;5.10;;;;;;;17.05;39.63;102091.23;103729;1285;61967;-77
2023/12/28 03:20:33;;;;;;;7.30;4.90;;;;;;;17.05;39.61;102092.31;103796;1281;61338;-76
2023/12/28 03:22:58;;;;;;;6.80;5.00;;;;;;;17.04;39.69;102091.96;103754;1281;61385;-77
2023/12/28 03:25:24;;;;;;;8.10;4.40;;;;;;;17.04;39.67;102087.70;103620;1281;72291;-77
2023/12/28 03:27:50;;;;;;;8.20;5.10;;;;;;;17.05;39.68;102083.96;103616;1281;61459;-76
2023/12/28 03:30:15;;;;;;;7.50;5.40;;;;;;;17.04;39.67;102077.39;103925;1282;62949;-76
2023/12/28 03:32:41;;;;;;;7.50;5.00;;;;;;;17.04;39.64;102073.48;103543;1281;61373;-76
2023/12/28 03:35:07;;;;;;;8.00;4.60;;;;;;;17.04;39.64;102079.71;103738;1281;61397;-77
2023/12/28 03:37:33;;;;;;;7.70;5.00;;;;;;;17.04;39.57;102078.11;103807;1281;61357;-76
2023/12/28 03:39:58;;;;;;;9.30;5.20;;;;;;;17.03;39.68;102074.39;103709;1281;74494;-76
2023/12/28 03:42:24;;;;;;;7.90;4.80;;;;;;;17.03;39.64;102079.54;103678;1281;59056;-76
2023/12/28 03:44:50;;;;;;;7.70;5.00;;;;;;;17.03;39.72;102082.23;103602;1282;59971;-76
2023/12/28 03:47:15;;;;;;;8.00;5.30;;;;;;;17.04;39.61;102084.52;103709;1284;61273;-76
2023/12/28 03:49:41;;;;;;;8.40;5.50;;;;;;;17.03;39.60;102079.92;103554;1281;61216;-76
2023/12/28 03:52:07;;;;;;;7.60;5.10;;;;;;;17.03;39.70;102076.37;103737;1281;61358;-76
2023/12/28 03:54:33;;;;;;;7.20;4.90;;;;;;;17.02;39.66;102077.27;103725;1281;61252;-76
2023/12/28 03:56:58;;;;;;;7.90;5.00;;;;;;;17.03;39.69;102080.29;103413;1284;59520;-77
2023/12/28 03:59:24;;;;;;;7.60;4.80;;;;;;;17.02;39.65;102081.54;103819;1282;61357;-76
2023/12/28 04:01:50;;;;;;;6.90;4.60;;;;;;;17.02;39.59;102076.57;103456;1281;61262;-77
2023/12/28 04:04:15;;;;;;;8.50;4.80;;;;;;;17.02;39.68;102077.45;103771;1281;61365;-77
2023/12/28 04:06:43;;;;;;;7.30;4.80;;;;;;;17.02;39.64;102082.63;103573;1281;59356;-76
2023/12/28 04:09:08;;;;;;;7.90;5.00;;;;;;;17.02;39.65;102084.58;103475;1282;59448;-76
2023/12/28 04:11:34;;;;;;;6.50;4.80;;;;;;;17.02;39.63;102079.79;103673;1281;61309;-76
2023/12/28 04:14:00;;;;;;;8.00;4.70;;;;;;;17.02;39.68;102078.89;103605;1282;74066;-76
2023/12/28 04:16:25;;;;;;;8.30;4.80;;;;;;;17.01;39.67;102074.11;103785;1281;61312;-76
2023/12/28 04:18:51;;;;;;;7.80;4.90;;;;;;;17.01;39.59;102071.25;103556;1281;61349;-77
2023/12/28 04:21:18;;;;;;;7.40;5.00;;;;;;;17.01;39.69;102074.98;103597;1282;59353;-76
2023/12/28 04:23:44;;;;;;;6.90;4.80;;;;;;;17.01;39.68;102075.20;103658;1286;61376;-77
2023/12/28 04:26:09;;;;;;;7.30;4.90;;;;;;;17.01;39.59;102080.89;103543;1281;61329;-76
2023/12/28 04:28:35;;;;;;;8.00;4.90;;;;;;;17.01;39.64;102081.06;103869;1281;61395;-76
2023/12/28 04:31:04;;;;;;;7.00;4.60;;;;;;;17.01;39.58;102081.06;103485;1283;61355;-76
2023/12/28 04:33:31;;;;;;;7.10;4.60;;;;;;;17.01;39.57;102075.38;103423;1282;73524;-76
2023/12/28 04:35:57;;;;;;;8.40;5.10;;;;;;;17.00;39.62;102070.60;103309;1282;61372;-76
2023/12/28 04:38:23;;;;;;;8.20;5.30;;;;;;;17.00;39.66;102071.84;103700;1281;59824;-76
2023/12/28 04:40:48;;;;;;;7.30;4.80;;;;;;;17.00;39.64;102067.92;103732;1281;61404;-76
2023/12/28 04:43:14;;;;;;;8.80;5.90;;;;;;;17.00;39.61;102063.48;103630;1281;61378;-77
2023/12/28 04:45:40;;;;;;;7.20;5.00;;;;;;;17.00;39.59;102059.39;103649;1282;61351;-76
2023/12/28 04:48:06;;;;;;;6.90;4.80;;;;;;;16.99;39.53;102062.61;103603;1281;61470;-76
2023/12/28 04:50:32;;;;;;;8.50;5.40;;;;;;;17.00;39.54;102065.10;103810;1281;61233;-76
2023/12/28 04:52:57;;;;;;;7.80;5.10;;;;;;;16.99;39.50;102063.34;103627;1282;60115;-76
2023/12/28 04:55:24;;;;;;;7.90;5.20;;;;;;;16.99;39.54;102066.02;103754;1282;61358;-76
2023/12/28 04:57:50;;;;;;;8.00;5.10;;;;;;;16.98;39.58;102062.65;103391;1282;61336;-76
2023/12/28 05:00:15;;;;;;;8.00;5.20;;;;;;;16.98;39.49;102065.50;103625;1282;60053;-76
2023/12/28 05:02:41;;;;;;;7.60;4.90;;;;;;;16.98;39.56;102066.40;103621;1282;61234;-76
2023/12/28 05:05:09;;;;;;;10.20;5.40;;;;;;;16.98;39.51;102063.20;103624;1282;61355;-76
2023/12/28 05:07:34;;;;;;;8.20;5.10;;;;;;;16.98;39.47;102064.96;103470;1282;61313;-76
2023/12/28 05:10:00;;;;;;;7.70;5.20;;;;;;;16.98;39.50;102066.76;103460;1282;59375;-76
2023/12/28 05:12:26;;;;;;;7.70;5.40;;;;;;;16.98;39.42;102063.57;103646;1282;61379;-76
2023/12/28 05:14:52;;;;;;;8.60;5.60;;;;;;;16.98;39.43;102057.86;103566;1282;59968;-77
2023/12/28 05:17:17;;;;;;;10.00;5.60;;;;;;;16.99;39.41;102055.87;103536;1282;61447;-77
2023/12/28 05:19:43;;;;;;;8.70;5.30;;;;;;;16.98;39.33;102054.30;103564;1282;61420;-77
2023/12/28 05:22:10;;;;;;;8.00;5.10;;;;;;;16.99;39.27;102050.91;103790;1282;61362;-76
2023/12/28 05:24:36;;;;;;;8.50;5.30;;;;;;;16.98;39.22;102051.80;103609;1282;61391;-76
2023/12/28 05:27:02;;;;;;;8.00;5.40;;;;;;;16.98;39.11;102051.98;103446;1282;61280;-77
2023/12/28 05:29:28;;;;;;;9.00;5.50;;;;;;;16.99;39.17;102051.09;103794;1282;59369;-77
2023/12/28 05:31:54;;;;;;;7.30;5.60;;;;;;;16.99;39.03;102047.53;103812;1282;61279;-77
2023/12/28 05:34:19;;;;;;;6.90;5.10;;;;;;;16.99;39.09;102044.85;103603;1281;61250;-76
2023/12/28 05:36:48;;;;;;;8.70;5.60;;;;;;;16.99;39.02;102045.02;103504;1282;61350;-77
2023/12/28 05:39:13;;;;;;;8.50;5.20;;;;;;;16.98;38.95;102045.57;104160;1281;72516;-78
2023/12/28 05:41:40;;;;;;;7.10;5.10;;;;;;;16.99;38.86;102054.09;103781;1282;59953;-76
2023/12/28 05:44:06;;;;;;;9.30;5.70;;;;;;;17.00;38.83;102058.86;103892;1282;61859;-77
2023/12/28 05:46:31;;;;;;;8.60;5.90;;;;;;;17.01;38.89;102054.56;103777;1281;61362;-76
2023/12/28 05:48:57;;;;;;;10.70;5.90;;;;;;;17.02;38.81;102053.98;103973;1280;61270;-77
2023/12/28 05:51:23;;;;;;;9.30;6.10;;;;;;;17.05;38.62;102051.75;104243;1280;59921;-77
2023/12/28 05:53:49;;;;;;;9.90;5.80;;;;;;;17.07;38.58;102050.44;103760;1282;59178;-76
2023/12/28 05:56:14;;;;;;;9.20;5.80;;;;;;;17.10;38.43;102057.80;103890;1280;61256;-77
2023/12/28 05:58:41;;;;;;;8.70;5.70;;;;;;;17.14;38.36;102060.34;103709;1282;59320;-76
2023/12/28 06:01:07;;;;;;;10.20;6.10;;;;;;;17.17;38.22;102056.31;103703;1282;72436;-76
2023/12/28 06:03:33;;;;;;;8.80;6.10;;;;;;;17.21;38.18;102054.23;103718;1282;59345;-77
2023/12/28 06:05:59;;;;;;;9.30;5.90;;;;;;;17.24;37.93;102043.80;103761;1282;59359;-76
2023/12/28 06:08:24;;;;;;;8.10;5.40;;;;;;;17.28;37.83;102037.95;103711;1282;61224;-76
2023/12/28 06:10:50;;;;;;;9.60;5.70;;;;;;;17.32;37.81;102041.04;103560;1281;61379;-77
2023/12/28 06:13:16;;;;;;;9.70;5.50;;;;;;;17.35;37.73;102042.87;103649;1281;61358;-77
2023/12/28 06:15:41;;;;;;;9.00;5.50;;;;;;;17.39;37.71;102042.94;104132;1281;74687;-76
2023/12/28 06:18:07;;;;;;;7.90;5.30;;;;;;;17.41;37.62;102050.83;103770;1281;61376;-78
2023/12/28 06:20:33;;;;;;;8.20;5.70;;;;;;;17.45;37.62;102055.52;104136;1283;61388;-77
2023/12/28 06:22:58;;;;;;;8.80;5.50;;;;;;;17.48;37.46;102056.13;104251;1281;61374;-76
2023/12/28 06:25:24;;;;;;;7.30;5.00;;;;;;;17.51;37.40;102056.02;103887;1288;61396;-77
2023/12/28 06:27:49;;;;;;;7.10;5.20;;;;;;;17.53;37.51;102060.73;104625;1281;59208;-77
2023/12/28 06:30:15;;;;;;;7.70;5.40;;;;;;;17.57;37.47;102059.89;104683;1281;61254;-77
2023/12/28 06:32:41;;;;;;;9.70;5.20;;;;;;;17.59;37.37;102060.87;104635;1280;61358;-77
2023/12/28 06:35:07;;;;;;;9.80;5.50;;;;;;;17.62;37.42;102065.39;104671;1282;61447;-78
2023/12/28 06:37:33;;;;;;;10.80;5.50;;;;;;;17.65;37.27;102064.77;104700;1283;59923;-77
2023/12/28 06:39:58;;;;;;;7.60;5.40;;;;;;;17.67;37.25;102060.61;104353;1279;61433;-77
2023/12/28 06:42:24;;;;;;;8.50;5.10;;;;;;;17.69;37.24;102055.38;104124;1281;61372;-76
2023/12/28 06:44:50;;;;;;;7.50;4.90;;;;;;;17.71;37.10;102057.95;103903;1282;61260;-77
2023/12/28 06:47:16;;;;;;;8.00;5.40;;;;;;;17.73;37.04;102056.80;103859;1282;61290;-76
2023/12/28 06:49:41;;;;;;;6.40;4.80;;;;;;;17.75;37.12;102052.45;103809;1282;59273;-76
2023/12/28 06:52:07;;;;;;;7.70;5.00;;;;;;;17.78;37.03;102049.88;103821;1282;61305;-77
2023/12/28 06:54:32;;;;;;;9.30;5.70;;;;;;;17.79;37.00;102044.48;103891;1284;61265;-77
2023/12/28 06:56:58;;;;;;;10.40;5.50;;;;;;;17.80;37.01;102046.02;103974;1282;59991;-76
2023/12/28 06:59:24;;;;;;;9.00;5.10;;;;;;;17.82;36.97;102050.23;103811;1282;61312;-76
2023/12/28 07:01:49;;;;;;;7.90;5.50;;;;;;;17.84;36.87;102051.41;103606;1281;59509;-77
2023/12/28 07:04:15;;;;;;;9.30;5.30;;;;;;;17.86;36.88;102051.35;103965;1282;61314;-77
2023/12/28 07:06:41;;;;;;;8.30;5.30;;;;;;;17.87;36.92;102053.25;103827;1282;59968;-76
2023/12/28 07:09:07;;;;;;;9.30;5.70;;;;;;;17.89;36.75;102058.54;103787;1280;61339;-77
2023/12/28 07:11:32;;;;;;;8.10;5.40;;;;;;;17.90;36.77;102060.98;104032;1280;61234;-76
2023/12/28 07:13:58;;;;;;;8.50;5.90;;;;;;;17.92;36.89;102063.61;103720;1285;73248;-77
2023/12/28 07:16:24;;;;;;;8.10;5.00;;;;;;;17.93;36.66;102061.80;103934;1281;61835;-77
2023/12/28 07:18:49;;;;;;;8.20;5.20;;;;;;;17.95;36.71;102067.25;103856;1281;61431;-76
2023/12/28 07:21:15;;;;;;;9.20;5.40;;;;;;;17.96;36.68;102063.66;104102;1281;59290;-77
2023/12/28 07:23:41;;;;;;;8.50;5.00;;;;;;;17.97;36.70;102065.21;104079;1284;59983;-77
2023/12/28 07:26:07;;;;;;;8.00;5.10;;;;;;;17.98;36.70;102060.36;104128;1282;61362;-77
2023/12/28 07:28:33;;;;;;;9.00;6.00;;;;;;;17.99;36.63;102054.79;104193;1281;61332;-76
2023/12/28 07:30:59;;;;;;;7.80;5.30;;;;;;;18.00;36.57;102054.92;103769;1282;60332;-77
2023/12/28 07:33:25;;;;;;;6.80;4.80;;;;;;;18.02;36.59;102048.29;103549;1285;59940;-77
2023/12/28 07:35:51;;;;;;;8.60;5.50;;;;;;;18.01;36.52;102049.20;103760;1285;61318;-77
2023/12/28 07:38:17;;;;;;;7.50;5.50;;;;;;;18.02;36.43;102051.47;103347;1285;622620;-76
2023/12/28 07:40:42;;;;;;;9.20;5.30;;;;;;;18.03;36.51;102052.86;103300;1285;61490;-76
2023/12/28 07:43:08;;;;;;;8.40;5.30;;;;;;;18.04;36.44;102054.23;103512;1285;61330;-76
2023/12/28 07:45:35;;;;;;;7.50;5.30;;;;;;;18.05;36.32;102052.07;103661;1284;72368;-76
2023/12/28 07:48:00;;;;;;;7.10;5.30;;;;;;;18.06;36.50;102050.77;103787;1286;61540;-77
2023/12/28 07:50:26;;;;;;;8.50;5.30;;;;;;;18.07;36.46;102045.92;103287;1288;59396;-76
2023/12/28 07:52:52;;;;;;;8.20;5.20;;;;;;;18.08;36.39;102042.88;103110;1285;61481;-76
2023/12/28 07:55:17;;;;;;;8.40;5.60;;;;;;;18.09;36.44;102038.38;103290;1285;61395;-76
2023/12/28 07:57:43;;;;;;;9.10;5.40;;;;;;;18.10;36.39;102038.88;103253;1285;61293;-76
2023/12/28 08:00:09;;;;;;;7.20;5.10;;;;;;;18.12;36.31;102039.89;103494;1290;61479;-76
2023/12/28 08:02:35;;;;;;;7.80;5.10;;;;;;;18.12;36.31;102035.40;103337;1282;61278;-76
2023/12/28 08:05:01;;;;;;;8.00;5.40;;;;;;;18.13;36.36;102041.27;103544;1281;61235;-76
2023/12/28 08:07:27;;;;;;;8.10;5.40;;;;;;;18.13;36.38;102044.27;103555;1283;61509;-76
2023/12/28 08:09:53;;;;;;;7.20;5.30;;;;;;;18.15;36.34;102048.84;103540;1282;61483;-76
2023/12/28 08:12:21;;;;;;;10.60;5.40;;;;;;;18.17;36.43;102045.75;103647;1280;61317;-76
2023/12/28 08:14:47;;;;;;;8.70;5.50;;;;;;;18.18;36.22;102044.45;103440;1286;61414;-76
2023/12/28 08:17:13;;;;;;;10.80;5.70;;;;;;;18.19;36.38;102041.92;103530;1282;61359;-76
2023/12/28 08:19:38;;;;;;;8.10;5.30;;;;;;;18.21;36.24;102053.79;103384;1287;61251;-76
2023/12/28 08:22:04;;;;;;;9.50;5.50;;;;;;;18.22;36.26;102057.85;103770;1282;61254;-76
2023/12/28 08:24:30;;;;;;;8.40;5.40;;;;;;;18.22;36.26;102064.75;103418;1282;61394;-76
2023/12/28 08:26:59;;;;;;;8.10;5.40;;;;;;;18.24;36.25;102067.91;103437;1282;61362;-76
2023/12/28 08:29:26;;;;;;;7.10;4.90;;;;;;;18.25;36.29;102066.46;103697;1285;72496;-76
2023/12/28 08:31:52;;;;;;;8.40;5.60;;;;;;;18.26;36.14;102064.80;103857;1281;61377;-76
2023/12/28 08:34:18;;;;;;;8.60;5.80;;;;;;;18.27;36.24;102064.05;103697;1281;61315;-76
2023/12/28 08:36:44;;;;;;;7.30;5.20;;;;;;;18.28;36.16;102060.47;103529;1282;59453;-76
2023/12/28 08:39:09;;;;;;;9.50;5.40;;;;;;;18.28;36.13;102059.20;103736;1284;61364;-76
2023/12/28 08:41:35;;;;;;;7.70;4.90;;;;;;;18.29;36.21;102055.07;103937;1282;61417;-76
2023/12/28 08:44:02;;;;;;;8.50;4.90;;;;;;;18.31;36.23;102053.77;104092;1282;61388;-76
2023/12/28 08:46:28;;;;;;;8.20;4.90;;;;;;;18.31;36.18;102047.87;103831;1281;61387;-77
2023/12/28 08:48:54;;;;;;;10.10;5.40;;;;;;;18.32;36.24;102044.27;103656;1282;61359;-76
2023/12/28 08:51:22;;;;;;;8.50;5.00;;;;;;;18.33;36.18;102042.45;103919;1281;61376;-76
2023/12/28 08:53:47;;;;;;;8.30;5.40;;;;;;;18.34;36.11;102043.83;103422;1282;61368;-76
2023/12/28 08:56:14;;;;;;;6.50;4.80;;;;;;;18.35;36.26;102040.23;103485;1283;61334;-77
2023/12/28 08:58:39;;;;;;;8.10;5.30;;;;;;;18.35;36.11;102035.22;103524;1285;61333;-77
2023/12/28 09:01:05;;;;;;;10.30;5.50;;;;;;;18.34;36.17;102026.17;103608;1283;60069;-77
2023/12/28 09:03:31;;;;;;;8.10;4.90;;;;;;;18.33;36.07;102021.23;103807;1283;62217;-77
2023/12/28 09:05:56;;;;;;;8.80;5.20;;;;;;;18.32;36.21;102018.61;103525;1285;62287;-77
2023/12/28 09:08:22;;;;;;;8.00;5.00;;;;;;;18.30;36.18;102023.33;103915;1282;59731;-77
2023/12/28 09:10:48;;;;;;;8.10;5.10;;;;;;;18.27;36.14;102017.90;103834;1285;61452;-77
2023/12/28 09:13:19;;;;;;;7.30;4.70;;;;;;;18.25;36.25;102014.77;103605;1281;61339;-77
2023/12/28 09:15:45;;;;;;;8.40;5.40;;;;;;;18.22;36.28;101997.77;103526;1286;75320;-77
2023/12/28 09:18:11;;;;;;;8.00;5.30;;;;;;;18.19;36.27;101985.95;103541;1286;60050;-77
2023/12/28 09:20:37;;;;;;;8.00;5.30;;;;;;;18.18;36.19;101986.02;103737;1282;61374;-77
2023/12/28 09:23:03;;;;;;;7.80;5.10;;;;;;;18.15;36.39;101981.85;103724;1284;61352;-79
2023/12/28 09:25:28;;;;;;;8.40;5.20;;;;;;;18.13;36.41;101973.22;103441;1287;61391;-77
2023/12/28 09:27:54;;;;;;;7.80;5.00;;;;;;;18.11;36.28;101970.95;103606;1285;61349;-77
2023/12/28 09:30:19;;;;;;;8.00;5.10;;;;;;;18.09;36.37;101965.69;103569;1286;61257;-78
2023/12/28 09:32:45;;;;;;;9.30;5.50;;;;;;;18.08;36.34;101964.85;104029;1282;61358;-77
2023/12/28 09:35:11;;;;;;;8.00;5.10;;;;;;;18.06;36.44;101961.53;103644;1283;62172;-77
2023/12/28 09:37:37;;;;;;;8.20;5.50;;;;;;;18.05;36.38;101955.50;103635;1284;60346;-77
2023/12/28 09:40:03;;;;;;;7.70;5.10;;;;;;;18.04;36.35;101954.84;103756;1283;61395;-77
2023/12/28 09:42:37;;;;;;;7.40;5.00;;;;;;;18.03;36.39;101947.21;103533;1286;61334;-77
2023/12/28 09:45:04;;;;;;;8.90;5.20;;;;;;;18.02;36.49;101943.50;103454;1288;72589;-77
2023/12/28 09:47:32;;;;;;;8.40;5.40;;;;;;;18.03;36.44;101941.20;103772;1285;62032;-76
2023/12/28 09:49:58;;;;;;;7.80;5.10;;;;;;;18.01;36.46;101939.28;103664;1283;61258;-77
2023/12/28 09:52:23;;;;;;;10.90;5.50;;;;;;;18.01;36.49;101935.91;103379;1287;60360;-77
2023/12/28 09:54:49;;;;;;;7.60;5.30;;;;;;;18.00;36.46;101934.51;103507;1281;59951;-77
2023/12/28 09:57:15;;;;;;;8.00;5.10;;;;;;;18.00;36.44;101929.71;103907;1283;61366;-78
2023/12/28 09:59:40;;;;;;;7.10;4.60;;;;;;;18.00;36.37;101917.09;103468;1283;61352;-77
2023/12/28 10:02:06;;;;;;;9.20;5.10;;;;;;;17.99;36.53;101915.67;103626;1283;61365;-77
2023/12/28 10:04:31;;;;;;;8.80;5.70;;;;;;;18.00;36.50;101903.55;103407;1282;61359;-77
2023/12/28 10:06:57;;;;;;;8.10;5.70;;;;;;;17.99;36.53;101900.55;103636;1283;60399;-78
2023/12/28 10:09:26;;;;;;;8.30;5.10;;;;;;;17.98;36.55;101895.06;103598;1283;60038;-77
2023/12/28 10:11:53;;;;;;;8.30;5.20;;;;;;;17.97;36.48;101898.84;103629;1282;60070;-79
2023/12/28 10:14:20;;;;;;;6.80;5.00;;;;;;;17.97;36.61;101894.21;103397;1283;61595;-77
2023/12/28 10:16:46;;;;;;;7.80;5.20;;;;;;;17.96;36.48;101890.15;103312;1282;73707;-77
2023/12/28 10:19:12;;;;;;;7.90;5.10;;;;;;;17.95;36.50;101883.77;103643;1285;75388;-77
2023/12/28 10:21:41;;;;;;;8.30;5.10;;;;;;;17.94;36.54;101876.86;103797;1284;61245;-77
2023/12/28 10:24:06;;;;;;;8.60;5.40;;;;;;;17.93;36.60;101868.87;103438;1283;60923;-77
2023/12/28 10:26:32;;;;;;;7.20;4.90;;;;;;;17.93;36.64;101864.80;103740;1283;62274;-78
2023/12/28 10:29:02;;;;;;;7.50;5.20;;;;;;;17.91;36.69;101864.84;103745;1282;61446;-77
2023/12/28 10:31:29;;;;;;;7.80;5.30;;;;;;;17.90;36.63;101856.16;104044;1289;61379;-78
2023/12/28 10:33:58;;;;;;;9.10;5.40;;;;;;;17.89;36.56;101851.02;103853;1286;61252;-77
2023/12/28 10:36:24;;;;;;;8.20;5.00;;;;;;;17.89;36.50;101846.25;103776;1283;72541;-77
2023/12/28 10:38:50;;;;;;;8.50;5.20;;;;;;;17.88;36.62;101842.90;103799;1282;61440;-77
2023/12/28 10:41:16;;;;;;;9.50;4.90;;;;;;;17.86;36.59;101836.00;104057;1283;60939;-77
2023/12/28 10:43:47;;;;;;;8.20;4.80;;;;;;;17.86;36.65;101829.80;103980;1282;61349;-77
2023/12/28 10:46:25;;;;;;;7.60;4.80;;;;;;;17.84;36.71;101823.63;103539;1282;73550;-77
2023/12/28 10:48:51;;;;;;;7.20;5.00;;;;;;;17.84;36.59;101823.29;103991;1283;75320;-77
2023/12/28 10:51:17;;;;;;;6.80;5.10;;;;;;;17.83;36.66;101824.95;103747;1282;61366;-77
2023/12/28 10:53:58;;;;;;;8.70;5.20;;;;;;;17.81;36.71;101824.45;104620;1282;59294;-78
2023/12/28 10:56:41;;;;;;;7.30;5.10;;;;;;;17.81;36.73;101828.40;104360;1283;72382;-78
2023/12/28 10:59:23;;;;;;;7.30;5.10;;;;;;;17.79;36.67;101826.17;104151;1282;74364;-77
2023/12/28 11:01:51;;;;;;;7.30;5.20;;;;;;;17.78;36.71;101820.16;104131;1282;61169;-77
2023/12/28 11:04:38;;;;;;;8.00;5.10;;;;;;;17.77;36.65;101816.10;103903;1281;61309;-77
2023/12/28 11:07:04;;;;;;;8.60;5.00;;;;;;;17.76;36.71;101808.65;103666;1285;72328;-77
2023/12/28 11:09:31;;;;;;;9.40;5.00;;;;;;;17.75;36.56;101804.77;103534;1282;61801;-77
2023/12/28 11:11:59;;;;;;;7.40;5.10;;;;;;;17.75;36.64;101800.33;103555;1283;61442;-77